Disclaimer

Please do not use the information listed here in-flight or in-navigation, as they are not provided to us by the airports but are provided by volunteers, so they might be outdated.

Search


Regions


Airport information page

Radio informations:
Tower (TWR) - 119.65 MHz
KYIV RADAR - 124.675 MHz
OPS - 131.775 MHz
Ground (GND) - 118.05 MHz
Automatic Terminal Information Service (ATIS) - 126.7 MHz

Airport informations:
Latitude: 50° 20' 42.00" N
Longitude: 030° 53' 41.00" E
Elevation: 427 feet - 130 meters
Operating hours: N/A
Operating agency: Civil government, landing fees and diplomatic clearance may be required
Timezone: UTC+2(+3DT) - Last Sunday in March to last Sunday in October
Fuel: Jet A1, without icing nhibitor.

Runway information:
18R/36L - 11483 x 206 feet< - >3500 x 63 meters
18L/36R - 13123 x 197 feet< - >4000 x 60 meters

Recent METARs:
UKBB 201500Z 02004MPS 9999 SCT018 M02/M04 Q1026 R88/190050 NOSIG
UKBB 201530Z 02004MPS 9999 BKN018 M02/M04 Q1026 R88/190050 NOSIG
UKBB 201600Z 02003MPS 9999 BKN018 M03/M05 Q1026 R88/190050 NOSIG

Airport on the map: